createdAt,value
2023-03-21T00:00:51.801Z,73.7
2023-03-21T00:01:51.817Z,74.6
2023-03-21T00:02:51.790Z,74.1
2023-03-21T00:03:51.936Z,73.6
2023-03-21T00:04:53.791Z,72.4
2023-03-21T00:05:51.903Z,73.2
2023-03-21T00:06:51.775Z,73.3
2023-03-21T00:07:51.797Z,73.3
2023-03-21T00:08:51.776Z,73.8
2023-03-21T00:09:53.679Z,73.6
2023-03-21T00:10:51.797Z,74.4
2023-03-21T00:11:51.771Z,75.5
2023-03-21T00:12:51.784Z,75.9
2023-03-21T00:13:51.790Z,75.4
2023-03-21T00:14:51.788Z,75.3
2023-03-21T00:16:04.446Z,74.9
2023-03-21T00:16:52.667Z,75.7
2023-03-21T00:17:51.783Z,75.1
2023-03-21T00:18:51.784Z,75.8
2023-03-21T00:19:51.800Z,75.5
2023-03-21T00:20:52.034Z,74.5
2023-03-21T00:22:06.491Z,73.7
2023-03-21T00:22:51.813Z,74.8
2023-03-21T00:23:51.828Z,75.4
2023-03-21T00:24:51.814Z,75.8
2023-03-21T00:25:51.782Z,75.9
2023-03-21T00:26:51.994Z,75
2023-03-21T00:28:07.148Z,74.4
2023-03-21T00:28:51.788Z,74.4
2023-03-21T00:29:51.889Z,74.5
2023-03-21T00:30:51.809Z,74.3
2023-03-21T00:31:51.821Z,74.4
2023-03-21T00:32:56.570Z,74.6
2023-03-21T00:33:51.869Z,75
2023-03-21T00:35:05.157Z,74.8
2023-03-21T00:35:58.714Z,74.5
2023-03-21T00:36:51.840Z,74.2
2023-03-21T00:37:51.780Z,74.8
2023-03-21T00:38:51.782Z,75
2023-03-21T00:39:51.975Z,74.9
2023-03-21T00:40:51.848Z,74.5
2023-03-21T00:41:51.919Z,74.9
2023-03-21T00:42:51.799Z,74.6
2023-03-21T00:43:51.793Z,75
2023-03-21T00:44:51.809Z,75.6
2023-03-21T00:45:58.184Z,75.1
2023-03-21T00:47:06.170Z,75
2023-03-21T00:47:52.001Z,75.1
2023-03-21T00:48:51.834Z,75.2
2023-03-21T00:49:51.818Z,76
2023-03-21T00:50:51.788Z,75.7
2023-03-21T00:51:52.068Z,76.2
2023-03-21T00:52:51.797Z,76.1
2023-03-21T00:53:51.918Z,75.9
2023-03-21T00:54:51.821Z,75.7
2023-03-21T00:55:51.812Z,75.8
2023-03-21T00:56:51.807Z,76.6
2023-03-21T00:58:01.214Z,76.7
2023-03-21T00:58:51.844Z,75.6
2023-03-21T00:59:51.779Z,75.2
2023-03-21T01:00:51.859Z,74.9
2023-03-21T01:01:51.833Z,75.1
2023-03-21T01:02:54.755Z,75.5
2023-03-21T01:03:51.770Z,76.8
2023-03-21T01:04:51.809Z,77.3
2023-03-21T01:05:51.799Z,77.3
2023-03-21T01:06:51.784Z,76.8
2023-03-21T01:07:51.794Z,77
2023-03-21T01:09:51.822Z,75.8
2023-03-21T01:10:51.821Z,75.6
2023-03-21T01:11:51.773Z,75.5
2023-03-21T01:12:51.865Z,75.8
2023-03-21T01:13:56.210Z,76.8
2023-03-21T01:14:51.784Z,76.2
2023-03-21T01:15:51.891Z,76.4
2023-03-21T01:16:51.788Z,75.7
2023-03-21T01:17:51.804Z,75.6
2023-03-21T01:18:51.772Z,75.3
2023-03-21T01:19:52.461Z,75.8
2023-03-21T01:20:51.777Z,75.7
2023-03-21T01:21:51.782Z,75.2
2023-03-21T01:22:51.782Z,75.2
2023-03-21T01:23:51.791Z,75.1
2023-03-21T01:24:58.579Z,74.5
2023-03-21T01:25:51.779Z,75.2
2023-03-21T01:26:51.780Z,75.1
2023-03-21T01:27:51.776Z,75.5
2023-03-21T01:28:51.800Z,75.5
2023-03-21T01:29:51.799Z,75.6
2023-03-21T01:30:51.790Z,75.3
2023-03-21T01:31:51.805Z,75.6
2023-03-21T01:32:51.781Z,75.6
2023-03-21T01:33:51.795Z,75.7
2023-03-21T01:34:51.793Z,75.6
2023-03-21T01:36:00.353Z,75.8
2023-03-21T01:36:51.794Z,76.1
2023-03-21T01:37:51.794Z,76.6
2023-03-21T01:38:51.791Z,76
2023-03-21T01:39:51.789Z,76.5
2023-03-21T01:40:51.780Z,76
2023-03-21T01:41:51.780Z,76.2
2023-03-21T01:42:51.791Z,76.6
2023-03-21T01:43:51.787Z,75.4
2023-03-21T01:44:51.798Z,75.5
2023-03-21T01:45:45.700Z,75.9
2023-03-21T01:47:03.896Z,76.4
2023-03-21T01:47:51.847Z,76
2023-03-21T01:48:51.779Z,76
2023-03-21T01:49:51.781Z,75.7
2023-03-21T01:50:51.800Z,75.8
2023-03-21T01:51:52.589Z,76.1
2023-03-21T01:52:51.808Z,76.1
2023-03-21T01:53:51.776Z,75.9
2023-03-21T01:54:51.770Z,75.8
2023-03-21T01:55:51.811Z,76.1
2023-03-21T01:56:51.855Z,76
2023-03-21T01:58:04.331Z,76
2023-03-21T01:58:51.796Z,76.1
2023-03-21T01:59:51.768Z,76.4
2023-03-21T02:00:51.863Z,75.9
2023-03-21T02:01:51.785Z,75.6
2023-03-21T02:02:52.591Z,75.8
2023-03-21T02:03:51.850Z,75.6
2023-03-21T02:04:51.800Z,76
2023-03-21T02:05:51.785Z,76.1
2023-03-21T02:06:51.881Z,76.4
2023-03-21T02:07:51.817Z,76.4
2023-03-21T02:08:51.777Z,76
2023-03-21T02:09:51.783Z,75.8
2023-03-21T02:10:51.792Z,76
2023-03-21T02:11:51.794Z,76.3
2023-03-21T02:12:51.781Z,77
2023-03-21T02:13:58.230Z,76.6
2023-03-21T02:14:51.813Z,76.7
2023-03-21T02:15:51.786Z,76.4
2023-03-21T02:16:51.860Z,76.5
2023-03-21T02:17:51.779Z,76.9
2023-03-21T02:18:51.914Z,77
2023-03-21T02:19:53.708Z,77.1
2023-03-21T02:20:51.974Z,77
2023-03-21T02:21:51.892Z,77
2023-03-21T02:22:51.938Z,76.7
2023-03-21T02:23:52.039Z,76.9
2023-03-21T02:24:59.569Z,77.3
2023-03-21T02:25:51.808Z,77.9
2023-03-21T02:27:01.412Z,77.9
2023-03-21T02:27:52.062Z,76.9
2023-03-21T02:28:52.124Z,76.2
2023-03-21T02:29:52.118Z,76.2
2023-03-21T02:30:52.732Z,76.8
2023-03-21T02:31:51.888Z,76.3
2023-03-21T02:32:51.813Z,75.9
2023-03-21T02:33:51.791Z,76.2
2023-03-21T02:34:51.802Z,76.3
2023-03-21T02:35:54.554Z,76.5
2023-03-21T02:36:51.859Z,76.4
2023-03-21T02:37:59.909Z,77.1
2023-03-21T02:38:51.794Z,77.6
2023-03-21T02:39:51.789Z,77.4
2023-03-21T02:40:51.780Z,77.1
2023-03-21T02:41:51.796Z,77
2023-03-21T02:42:59.630Z,77.1
2023-03-21T02:43:51.780Z,76.8
2023-03-21T02:44:51.790Z,76.8
2023-03-21T02:45:51.827Z,76.3
2023-03-21T02:47:02.892Z,76.2
2023-03-21T02:47:51.831Z,77
2023-03-21T02:48:51.876Z,78
2023-03-21T02:49:51.786Z,77.2
2023-03-21T02:50:51.794Z,77.1
2023-03-21T02:51:51.799Z,77
2023-03-21T02:52:51.797Z,77.4
2023-03-21T02:54:07.134Z,77.6
2023-03-21T02:54:51.774Z,77
2023-03-21T02:55:51.801Z,77.2
2023-03-21T02:56:51.796Z,76.7
2023-03-21T02:57:52.455Z,77.9
2023-03-21T02:58:51.793Z,77.4
2023-03-21T02:59:56.972Z,77.3
2023-03-21T03:00:51.818Z,77.8
2023-03-21T03:01:51.822Z,79
2023-03-21T03:03:02.722Z,78.7
2023-03-21T03:03:51.790Z,79.4
2023-03-21T03:04:51.834Z,79.3
2023-03-21T03:05:51.779Z,78.6
2023-03-21T03:06:51.794Z,78.7
2023-03-21T03:07:51.780Z,78.9
2023-03-21T03:09:01.775Z,78.8
2023-03-21T03:09:51.782Z,78.6
2023-03-21T03:10:51.791Z,78.4
2023-03-21T03:11:51.787Z,78.2
2023-03-21T03:12:51.788Z,77.9
2023-03-21T03:13:51.791Z,77.9
2023-03-21T03:15:02.674Z,78
2023-03-21T03:15:51.946Z,78.2
2023-03-21T03:16:51.815Z,78.2
2023-03-21T03:17:51.790Z,78.6
2023-03-21T03:18:51.798Z,78.3
2023-03-21T03:19:51.797Z,77.7
2023-03-21T03:20:51.812Z,77.8
2023-03-21T03:21:51.806Z,77.9
2023-03-21T03:22:51.794Z,79.2
2023-03-21T03:23:51.848Z,78.6
2023-03-21T03:24:51.794Z,78.5
2023-03-21T03:25:51.792Z,78.7
2023-03-21T03:26:51.789Z,78.7
2023-03-21T03:27:51.803Z,78.5
2023-03-21T03:28:51.818Z,79.1
2023-03-21T03:29:51.794Z,78.6
2023-03-21T03:31:07.429Z,78.5
2023-03-21T03:31:51.893Z,79
2023-03-21T03:32:51.809Z,78.3
2023-03-21T03:33:51.789Z,78
2023-03-21T03:34:51.789Z,78
2023-03-21T03:36:04.378Z,78.2
2023-03-21T03:36:51.888Z,78
2023-03-21T03:37:51.820Z,78.2
2023-03-21T03:38:51.799Z,78.7
2023-03-21T03:39:51.792Z,78.6
2023-03-21T03:40:51.790Z,78.7
2023-03-21T03:42:28.185Z,78.9
2023-03-21T03:42:51.807Z,79.1
2023-03-21T03:43:51.793Z,78.9
2023-03-21T03:44:51.793Z,79.1
2023-03-21T03:45:51.829Z,79.4
2023-03-21T03:46:51.813Z,78.9
2023-03-21T03:47:57.115Z,79.3
2023-03-21T03:48:51.800Z,80.5
2023-03-21T03:49:51.809Z,80.6
2023-03-21T03:50:51.793Z,80.5
2023-03-21T03:51:51.829Z,80.6
2023-03-21T03:52:57.027Z,80.9
2023-03-21T03:53:51.799Z,80.4
2023-03-21T03:54:51.790Z,80.2
2023-03-21T03:55:51.809Z,80
2023-03-21T03:56:51.805Z,79.9
2023-03-21T03:57:51.804Z,79.6
2023-03-21T03:58:51.811Z,79.5
2023-03-21T03:59:51.802Z,79.5
2023-03-21T04:00:51.798Z,79
2023-03-21T04:01:51.934Z,79.9
2023-03-21T04:02:51.871Z,80.4
2023-03-21T04:04:03.502Z,79.7
2023-03-21T04:04:51.803Z,79.5
2023-03-21T04:05:51.822Z,79.7
2023-03-21T04:06:51.832Z,80.1
2023-03-21T04:07:51.783Z,79.9
2023-03-21T04:08:51.814Z,79.8
2023-03-21T04:09:51.934Z,79.8
2023-03-21T04:10:51.810Z,79.8
2023-03-21T04:11:51.809Z,80.3
2023-03-21T04:12:51.790Z,80.4
2023-03-21T04:13:51.840Z,79.2
2023-03-21T04:14:51.915Z,78.9
2023-03-21T04:15:51.820Z,79.4
2023-03-21T04:16:51.794Z,79.1
2023-03-21T04:17:51.802Z,79.2
2023-03-21T04:18:51.805Z,79.2
2023-03-21T04:19:55.540Z,79.3
2023-03-21T04:20:51.810Z,79.4
2023-03-21T04:21:51.807Z,79.8
2023-03-21T04:22:51.794Z,79.6
2023-03-21T04:23:51.792Z,79.8
2023-03-21T04:24:51.795Z,79.8
2023-03-21T04:25:56.744Z,80
2023-03-21T04:26:51.844Z,80.3
2023-03-21T04:27:51.802Z,80.2
2023-03-21T04:28:51.793Z,80.1
2023-03-21T04:29:51.814Z,79.9
2023-03-21T04:31:02.279Z,80.4
2023-03-21T04:31:51.840Z,80.7
2023-03-21T04:32:51.814Z,80.6
2023-03-21T04:33:51.794Z,80.4
2023-03-21T04:34:51.800Z,80.3
2023-03-21T04:35:51.844Z,80.7
2023-03-21T04:36:51.807Z,81.2
2023-03-21T04:37:51.807Z,80.9
2023-03-21T04:38:51.802Z,81
2023-03-21T04:39:51.809Z,81
2023-03-21T04:40:51.798Z,80.7
2023-03-21T04:41:51.817Z,81.4
2023-03-21T04:42:51.814Z,80.9
2023-03-21T04:43:52.549Z,80.7
2023-03-21T04:44:51.796Z,80.4
2023-03-21T04:45:51.827Z,80.4
2023-03-21T04:46:51.801Z,81.2
2023-03-21T04:47:51.843Z,81.2
2023-03-21T04:48:51.812Z,81.4
2023-03-21T04:49:51.816Z,81.2
2023-03-21T04:50:51.810Z,81.3
2023-03-21T04:51:51.797Z,81.5
2023-03-21T04:52:51.799Z,81
2023-03-21T04:53:51.874Z,80.7
2023-03-21T04:54:51.808Z,80.4
2023-03-21T04:55:54.897Z,81.1
2023-03-21T04:56:51.802Z,81.1
2023-03-21T04:57:51.785Z,81.2
2023-03-21T04:58:51.815Z,81.6
2023-03-21T04:59:51.789Z,81.4
2023-03-21T05:00:51.826Z,81.3
2023-03-21T05:01:51.895Z,81.9
2023-03-21T05:02:51.795Z,82.5
2023-03-21T05:03:51.858Z,81.9
2023-03-21T05:04:51.817Z,81.5
2023-03-21T05:05:51.821Z,82.3
2023-03-21T05:06:51.791Z,82.9
2023-03-21T05:07:51.796Z,83.2
2023-03-21T05:08:51.817Z,82.7
2023-03-21T05:09:51.833Z,82.3
2023-03-21T05:10:51.803Z,83.2
2023-03-21T05:11:51.778Z,83.3
2023-03-21T05:12:51.793Z,83.1
2023-03-21T05:13:51.795Z,83.1
2023-03-21T05:14:51.801Z,83
2023-03-21T05:15:51.869Z,83.5
2023-03-21T05:16:51.821Z,83.2
2023-03-21T05:17:51.842Z,82.5
2023-03-21T05:18:51.793Z,82.5
2023-03-21T05:19:51.793Z,82.3
2023-03-21T05:20:51.800Z,82.5
2023-03-21T05:21:51.828Z,82.6
2023-03-21T05:22:51.827Z,82.3
2023-03-21T05:23:51.783Z,82.4
2023-03-21T05:24:51.803Z,82.6
2023-03-21T05:25:51.810Z,82.6
2023-03-21T05:26:51.802Z,82.7
2023-03-21T05:27:51.869Z,83
2023-03-21T05:28:51.807Z,82.8
2023-03-21T05:29:51.810Z,82.8
2023-03-21T05:30:51.848Z,82.7
2023-03-21T05:31:51.820Z,82.8
2023-03-21T05:32:51.849Z,82.9
2023-03-21T05:33:51.793Z,83.1
2023-03-21T05:34:51.788Z,82.8
2023-03-21T05:35:51.873Z,82.4
2023-03-21T05:36:51.800Z,82.4
2023-03-21T05:37:51.795Z,82.4
2023-03-21T05:38:51.793Z,82.4
2023-03-21T05:39:51.789Z,82.2
2023-03-21T05:40:51.795Z,81.9
2023-03-21T05:41:51.805Z,81.8
2023-03-21T05:42:51.799Z,82
2023-03-21T05:43:51.821Z,82.5
2023-03-21T05:44:51.788Z,82
2023-03-21T05:45:51.853Z,82.1
2023-03-21T05:46:51.791Z,82.1
2023-03-21T05:47:51.848Z,81.5
2023-03-21T05:48:51.797Z,81.8
2023-03-21T05:49:51.788Z,81.7
2023-03-21T05:50:51.802Z,82
2023-03-21T05:51:51.802Z,82
2023-03-21T05:52:51.803Z,82
2023-03-21T05:53:51.808Z,81.9
2023-03-21T05:54:51.801Z,82
2023-03-21T05:55:51.814Z,82
2023-03-21T05:56:51.808Z,81.8
2023-03-21T05:57:51.806Z,81.5
2023-03-21T05:58:51.912Z,81.7
2023-03-21T05:59:51.798Z,81.9
2023-03-21T06:00:52.005Z,82.4
2023-03-21T06:01:51.937Z,82.3
2023-03-21T06:02:51.808Z,82.5
2023-03-21T06:03:51.890Z,82
2023-03-21T06:04:51.799Z,82.1
2023-03-21T06:05:51.799Z,82.4
2023-03-21T06:06:51.800Z,82.8
2023-03-21T06:07:51.795Z,82.9
2023-03-21T06:08:51.797Z,82.2
2023-03-21T06:09:51.809Z,82.3
2023-03-21T06:10:51.798Z,82.6
2023-03-21T06:11:51.869Z,82.9
2023-03-21T06:12:51.810Z,83.1
2023-03-21T06:13:51.803Z,83.3
2023-03-21T06:14:51.793Z,83.4
2023-03-21T06:15:51.871Z,83.5
2023-03-21T06:16:51.808Z,83.5
2023-03-21T06:17:51.810Z,83.5
2023-03-21T06:18:51.808Z,83.1
2023-03-21T06:19:51.824Z,83.3
2023-03-21T06:20:51.791Z,82.5
2023-03-21T06:21:51.799Z,83.1
2023-03-21T06:22:51.805Z,83.1
2023-03-21T06:23:51.823Z,82.9
2023-03-21T06:24:51.799Z,83
2023-03-21T06:25:51.828Z,83.3
2023-03-21T06:26:51.820Z,82.9
2023-03-21T06:27:51.815Z,82.4
2023-03-21T06:28:51.793Z,82.8
2023-03-21T06:29:51.793Z,82.9
2023-03-21T06:30:51.798Z,83.1
2023-03-21T06:31:51.818Z,83.3
2023-03-21T06:32:51.798Z,82.8
2023-03-21T06:33:51.899Z,82.9
2023-03-21T06:34:51.819Z,83.3
2023-03-21T06:35:51.857Z,83.2
2023-03-21T06:36:51.857Z,83.1
2023-03-21T06:37:51.822Z,83.1
2023-03-21T06:38:51.849Z,83.5
2023-03-21T06:39:52.616Z,84
2023-03-21T06:40:52.054Z,82.9
2023-03-21T06:41:52.128Z,82.9
2023-03-21T06:42:51.820Z,83.4
2023-03-21T06:43:51.869Z,83.4
2023-03-21T06:44:51.881Z,82.6
2023-03-21T06:45:51.803Z,82.5
2023-03-21T06:46:51.887Z,82.6
2023-03-21T06:47:51.868Z,82.5
2023-03-21T06:48:51.809Z,82.8
2023-03-21T06:49:51.816Z,82.8
2023-03-21T06:50:51.800Z,82.6
2023-03-21T06:51:51.817Z,82.6
2023-03-21T06:52:51.805Z,82.7
2023-03-21T06:53:51.814Z,82.8
2023-03-21T06:54:51.800Z,82.8
2023-03-21T06:55:51.812Z,83.2
2023-03-21T06:56:51.811Z,82.6
2023-03-21T06:57:51.805Z,82.9
2023-03-21T06:58:51.816Z,82.7
2023-03-21T06:59:51.813Z,82.7
2023-03-21T07:00:51.842Z,82.7
2023-03-21T07:01:51.813Z,82.8
2023-03-21T07:02:51.905Z,82.3
2023-03-21T07:03:51.804Z,82.6
2023-03-21T07:04:51.820Z,83.1
2023-03-21T07:06:51.876Z,83.1
2023-03-21T07:07:51.796Z,82.9
2023-03-21T07:08:51.799Z,83
2023-03-21T07:09:51.802Z,82.9
2023-03-21T07:10:51.827Z,82.7
2023-03-21T07:11:51.852Z,82.9
2023-03-21T07:12:51.797Z,83.7
2023-03-21T07:13:51.811Z,83.3
2023-03-21T07:14:51.819Z,82.6
2023-03-21T07:15:51.830Z,82.6
2023-03-21T07:16:52.165Z,82.4
2023-03-21T07:17:51.885Z,82.1
2023-03-21T07:18:51.864Z,81.8
2023-03-21T07:19:51.810Z,81.9
2023-03-21T07:20:51.857Z,81.6
2023-03-21T07:21:51.842Z,80.8
2023-03-21T07:22:51.814Z,80.6
2023-03-21T07:23:51.840Z,80.3
2023-03-21T07:25:04.044Z,80.5
2023-03-21T07:25:51.840Z,81
2023-03-21T07:26:51.828Z,81
2023-03-21T07:27:51.816Z,80.7
2023-03-21T07:28:51.817Z,80.7
2023-03-21T07:29:51.825Z,80.7
2023-03-21T07:30:51.807Z,80.9
2023-03-21T07:31:51.877Z,81.3
2023-03-21T07:32:51.814Z,81.4
2023-03-21T07:33:51.813Z,81.8
2023-03-21T07:34:51.806Z,82.1
2023-03-21T07:35:51.849Z,82.3
2023-03-21T07:36:51.819Z,83
2023-03-21T07:37:51.835Z,83.6
2023-03-21T07:38:51.804Z,83.4
2023-03-21T07:39:51.805Z,83.7
2023-03-21T07:40:51.819Z,83.6
2023-03-21T07:41:51.822Z,84.4
2023-03-21T07:42:51.855Z,84.4
2023-03-21T07:43:51.801Z,84.7
2023-03-21T07:44:51.811Z,85.3
2023-03-21T07:45:51.856Z,86.4
2023-03-21T07:46:51.814Z,86.6
2023-03-21T07:47:51.861Z,87.1
2023-03-21T07:48:51.814Z,87.4
2023-03-21T07:49:51.804Z,87.8
2023-03-21T07:50:51.798Z,88.4
2023-03-21T07:51:51.822Z,88.9
2023-03-21T07:52:51.858Z,88.9
2023-03-21T07:53:51.830Z,89.5
2023-03-21T07:54:51.810Z,90.1
2023-03-21T07:55:51.808Z,90.6
2023-03-21T07:56:51.816Z,91.2
2023-03-21T07:57:51.882Z,91.7
2023-03-21T07:58:51.822Z,91.4
2023-03-21T07:59:51.804Z,92.1
2023-03-21T08:00:51.803Z,92.8
2023-03-21T08:01:51.967Z,93.4
2023-03-21T08:02:51.818Z,94
2023-03-21T08:03:51.882Z,94.7
2023-03-21T08:04:51.828Z,95.2
2023-03-21T08:05:51.835Z,95.5
2023-03-21T08:06:51.802Z,94.9
2023-03-21T08:07:51.822Z,95.3
2023-03-21T08:08:51.811Z,96
2023-03-21T08:09:51.812Z,96.9
2023-03-21T08:10:51.801Z,97.4
2023-03-21T08:11:51.809Z,97.4
2023-03-21T08:12:51.802Z,98.1
2023-03-21T08:13:51.837Z,98.4
2023-03-21T08:14:51.815Z,98.8
2023-03-21T08:15:51.806Z,98.9
2023-03-21T08:16:58.232Z,99.4
2023-03-21T08:17:51.817Z,100
2023-03-21T08:18:51.815Z,100
2023-03-21T08:19:51.805Z,100
2023-03-21T08:20:51.832Z,100
2023-03-21T08:21:51.812Z,100
2023-03-21T08:22:51.822Z,100
2023-03-21T08:23:51.837Z,100
2023-03-21T08:24:51.807Z,100
2023-03-21T08:25:51.823Z,100
2023-03-21T08:26:51.824Z,100
2023-03-21T08:27:51.828Z,100
2023-03-21T08:28:51.810Z,100
2023-03-21T08:29:51.821Z,100
2023-03-21T08:30:51.901Z,100
2023-03-21T08:31:51.806Z,100
2023-03-21T08:32:51.817Z,100
2023-03-21T08:33:51.822Z,100
2023-03-21T08:34:51.813Z,100
2023-03-21T08:35:51.832Z,100
2023-03-21T08:36:51.812Z,100
2023-03-21T08:37:51.883Z,100
2023-03-21T08:38:51.817Z,100
2023-03-21T08:39:51.914Z,100
2023-03-21T08:40:51.818Z,100
2023-03-21T08:41:51.828Z,100
2023-03-21T08:42:51.874Z,100
2023-03-21T08:43:51.846Z,100
2023-03-21T08:44:51.803Z,100
2023-03-21T08:45:51.839Z,100
2023-03-21T08:46:51.814Z,100
2023-03-21T08:47:51.904Z,100
2023-03-21T08:48:51.812Z,100
2023-03-21T08:49:51.847Z,100
2023-03-21T08:50:51.846Z,100
2023-03-21T08:51:51.811Z,100
2023-03-21T08:52:51.816Z,100
2023-03-21T08:53:51.818Z,100
2023-03-21T08:55:51.821Z,100
2023-03-21T08:56:51.814Z,100
2023-03-21T08:57:51.825Z,100
2023-03-21T08:58:51.818Z,100
2023-03-21T08:59:51.847Z,100
2023-03-21T09:00:51.808Z,100
2023-03-21T09:01:51.903Z,100
2023-03-21T09:02:51.834Z,100
2023-03-21T09:03:51.819Z,100
2023-03-21T09:04:51.895Z,100
2023-03-21T09:05:51.816Z,100
2023-03-21T09:06:51.841Z,100
2023-03-21T09:07:51.820Z,100
2023-03-21T09:08:51.816Z,100
2023-03-21T09:10:08.152Z,100
2023-03-21T09:10:51.849Z,100
2023-03-21T09:11:52.613Z,100
2023-03-21T09:12:51.827Z,100
2023-03-21T09:13:51.841Z,100
2023-03-21T09:14:51.818Z,100
2023-03-21T09:15:51.916Z,100
2023-03-21T09:16:45.685Z,100
2023-03-21T09:17:51.817Z,100
2023-03-21T09:18:51.824Z,100
2023-03-21T09:19:51.887Z,100
2023-03-21T09:20:51.825Z,100
2023-03-21T09:21:51.833Z,100
2023-03-21T09:22:51.823Z,100
2023-03-21T09:23:51.817Z,100
2023-03-21T09:24:51.821Z,100
2023-03-21T09:25:51.814Z,100
2023-03-21T09:26:51.897Z,100
2023-03-21T09:27:51.862Z,100
2023-03-21T09:28:51.834Z,100
2023-03-21T09:29:51.950Z,100
2023-03-21T09:30:51.819Z,100
2023-03-21T09:31:51.849Z,100
2023-03-21T09:32:51.815Z,100
2023-03-21T09:33:51.832Z,100
2023-03-21T09:34:51.814Z,100
2023-03-21T09:35:52.329Z,100
2023-03-21T09:36:51.875Z,100
2023-03-21T09:37:51.811Z,100
2023-03-21T09:38:51.818Z,100
2023-03-21T09:39:51.861Z,100
2023-03-21T09:40:51.847Z,100
2023-03-21T09:41:51.865Z,100
2023-03-21T09:42:51.999Z,100
2023-03-21T09:43:51.830Z,100
2023-03-21T09:44:51.825Z,100
2023-03-21T09:45:51.835Z,100
2023-03-21T09:46:51.935Z,100
2023-03-21T09:47:51.846Z,100
2023-03-21T09:48:57.200Z,100
2023-03-21T09:49:52.948Z,100
2023-03-21T09:50:51.822Z,100
2023-03-21T09:51:51.846Z,100
2023-03-21T09:52:51.904Z,100
2023-03-21T09:53:51.815Z,100
2023-03-21T09:54:51.836Z,100
2023-03-21T09:55:51.817Z,100
2023-03-21T09:56:51.818Z,100
2023-03-21T09:57:51.822Z,100
2023-03-21T09:58:51.825Z,100
2023-03-21T09:59:51.840Z,100
2023-03-21T10:00:51.869Z,100
2023-03-21T10:01:51.824Z,100
2023-03-21T10:02:51.852Z,100
2023-03-21T10:03:51.819Z,100
2023-03-21T10:04:51.964Z,100
2023-03-21T10:05:51.812Z,100
2023-03-21T10:06:51.854Z,100
2023-03-21T10:07:51.824Z,100
2023-03-21T10:08:52.048Z,100
2023-03-21T10:09:51.861Z,100
2023-03-21T10:10:51.819Z,100
2023-03-21T10:11:51.809Z,100
2023-03-21T10:12:51.984Z,100
2023-03-21T10:13:51.822Z,100
2023-03-21T10:14:51.844Z,100
2023-03-21T10:15:51.832Z,100
2023-03-21T10:16:51.927Z,100
2023-03-21T10:17:51.840Z,100
2023-03-21T10:18:51.835Z,100
2023-03-21T10:19:51.812Z,100
2023-03-21T10:20:51.835Z,100
2023-03-21T10:22:00.676Z,100
2023-03-21T10:23:51.825Z,100
2023-03-21T10:24:51.882Z,100
2023-03-21T10:25:51.912Z,100
2023-03-21T10:26:51.825Z,100
2023-03-21T10:27:51.814Z,100
2023-03-21T10:28:53.385Z,100
2023-03-21T10:29:51.816Z,100
2023-03-21T10:30:51.821Z,100
2023-03-21T10:31:51.860Z,100
2023-03-21T10:32:51.866Z,100
2023-03-21T10:33:51.856Z,100
2023-03-21T10:34:51.839Z,100
2023-03-21T10:35:51.879Z,100
2023-03-21T10:37:51.817Z,100
2023-03-21T10:38:51.820Z,100
2023-03-21T10:39:51.833Z,100
2023-03-21T10:40:51.867Z,100
2023-03-21T10:41:51.828Z,100
2023-03-21T10:42:51.838Z,100
2023-03-21T10:43:51.841Z,100
2023-03-21T10:44:51.827Z,100
2023-03-21T10:45:52.007Z,100
2023-03-21T10:46:52.079Z,100
2023-03-21T10:47:52.183Z,100
2023-03-21T10:48:51.953Z,100
2023-03-21T10:50:09.189Z,100
2023-03-21T10:50:51.911Z,100
2023-03-21T10:51:51.846Z,100
2023-03-21T10:52:51.828Z,100
2023-03-21T10:53:51.819Z,100
2023-03-21T10:54:51.821Z,100
2023-03-21T10:55:51.822Z,100
2023-03-21T10:56:51.817Z,100
2023-03-21T10:57:51.823Z,100
2023-03-21T10:58:51.826Z,100
2023-03-21T10:59:51.825Z,100
2023-03-21T11:00:51.833Z,100
2023-03-21T11:01:51.840Z,100
2023-03-21T11:02:51.902Z,100
2023-03-21T11:03:51.814Z,100
2023-03-21T11:04:51.819Z,100
2023-03-21T11:05:51.822Z,100
2023-03-21T11:06:51.817Z,100
2023-03-21T11:07:51.809Z,100
2023-03-21T11:08:51.867Z,100
2023-03-21T11:09:53.651Z,100
2023-03-21T11:10:51.831Z,100
2023-03-21T11:11:51.821Z,100
2023-03-21T11:12:51.821Z,100
2023-03-21T11:13:51.812Z,100
2023-03-21T11:14:51.839Z,100
2023-03-21T11:15:51.815Z,100
2023-03-21T11:16:51.949Z,100
2023-03-21T11:17:51.822Z,100
2023-03-21T11:18:51.838Z,100
2023-03-21T11:19:51.852Z,100
2023-03-21T11:20:51.823Z,100
2023-03-21T11:21:51.817Z,100
2023-03-21T11:22:51.838Z,100
2023-03-21T11:23:51.850Z,100
2023-03-21T11:24:51.841Z,100
2023-03-21T11:25:51.823Z,100
2023-03-21T11:26:51.838Z,100
2023-03-21T11:27:51.878Z,100
2023-03-21T11:28:51.837Z,100
2023-03-21T11:29:51.838Z,100
2023-03-21T11:30:51.901Z,100
2023-03-21T11:31:51.840Z,100
2023-03-21T11:32:51.832Z,100
2023-03-21T11:33:51.841Z,100
2023-03-21T11:34:51.824Z,100
2023-03-21T11:35:51.887Z,100
2023-03-21T11:36:51.832Z,100
2023-03-21T11:37:51.913Z,100
2023-03-21T11:38:51.823Z,100
2023-03-21T11:39:51.825Z,100
2023-03-21T11:41:51.830Z,100
2023-03-21T11:42:51.834Z,100
2023-03-21T11:43:51.820Z,100
2023-03-21T11:44:51.860Z,100
2023-03-21T11:45:51.872Z,100
2023-03-21T11:46:53.324Z,100
2023-03-21T11:47:51.939Z,100
2023-03-21T11:48:51.839Z,100
2023-03-21T11:49:58.391Z,100
2023-03-21T11:50:51.815Z,100
2023-03-21T11:51:51.834Z,100
2023-03-21T11:52:51.843Z,100
2023-03-21T11:53:51.845Z,100
2023-03-21T11:54:51.836Z,100
2023-03-21T11:55:51.817Z,100
2023-03-21T11:56:51.837Z,100
2023-03-21T11:57:52.052Z,100
2023-03-21T11:58:51.852Z,100
2023-03-21T11:59:51.838Z,100
2023-03-21T12:00:51.843Z,100
2023-03-21T12:01:51.829Z,100
2023-03-21T12:02:51.897Z,100
2023-03-21T12:03:53.077Z,100
2023-03-21T12:04:51.833Z,100
2023-03-21T12:05:51.842Z,100
2023-03-21T12:06:51.826Z,100
2023-03-21T12:07:51.836Z,100
2023-03-21T12:08:51.833Z,100
2023-03-21T12:09:51.837Z,100
2023-03-21T12:10:51.823Z,100
2023-03-21T12:11:51.838Z,100
2023-03-21T12:12:51.841Z,100
2023-03-21T12:13:51.832Z,100
2023-03-21T12:14:51.860Z,100
2023-03-21T12:15:54.983Z,100
2023-03-21T12:16:51.889Z,100
2023-03-21T12:17:51.841Z,100
2023-03-21T12:18:51.844Z,100
2023-03-21T12:19:51.840Z,100
2023-03-21T12:20:51.835Z,100
2023-03-21T12:21:53.901Z,100
2023-03-21T12:22:51.889Z,100
2023-03-21T12:23:52.121Z,100
2023-03-21T12:24:51.825Z,100
2023-03-21T12:25:51.835Z,100
2023-03-21T12:26:51.919Z,100
2023-03-21T12:27:51.829Z,100
2023-03-21T12:28:51.837Z,100
2023-03-21T12:29:51.841Z,100
2023-03-21T12:30:51.830Z,100
2023-03-21T12:31:51.935Z,100
2023-03-21T12:32:51.826Z,100
2023-03-21T12:33:51.834Z,100
2023-03-21T12:34:51.875Z,100
2023-03-21T12:35:51.873Z,100
2023-03-21T12:36:51.824Z,100
2023-03-21T12:37:53.248Z,100
2023-03-21T12:38:51.832Z,100
2023-03-21T12:39:51.833Z,100
2023-03-21T12:40:51.844Z,100
2023-03-21T12:41:51.839Z,100
2023-03-21T12:42:51.849Z,100
2023-03-21T12:43:54.005Z,100
2023-03-21T12:44:51.919Z,100
2023-03-21T12:45:52.358Z,100
2023-03-21T12:46:51.955Z,100
2023-03-21T12:47:51.980Z,100
2023-03-21T12:48:51.889Z,100
2023-03-21T12:49:54.000Z,100
2023-03-21T12:50:51.825Z,100
2023-03-21T12:51:51.846Z,100
2023-03-21T12:52:51.848Z,100
2023-03-21T12:53:51.844Z,100
2023-03-21T12:54:51.829Z,100
2023-03-21T12:55:51.831Z,100
2023-03-21T12:56:51.823Z,100
2023-03-21T12:57:57.597Z,100
2023-03-21T12:58:51.831Z,100
2023-03-21T12:59:51.822Z,100
2023-03-21T13:00:51.958Z,100
2023-03-21T13:01:51.826Z,100
2023-03-21T13:02:51.863Z,100
2023-03-21T13:03:51.869Z,100
2023-03-21T13:04:51.831Z,100
2023-03-21T13:05:51.838Z,100
2023-03-21T13:06:51.866Z,100
2023-03-21T13:07:51.825Z,100
2023-03-21T13:08:51.834Z,100
2023-03-21T13:09:51.839Z,100
2023-03-21T13:10:51.842Z,100
2023-03-21T13:11:51.829Z,100
2023-03-21T13:12:51.835Z,100
2023-03-21T13:13:51.833Z,100
2023-03-21T13:14:51.835Z,100
2023-03-21T13:15:51.861Z,100
2023-03-21T13:16:51.821Z,100
2023-03-21T13:17:51.834Z,100
2023-03-21T13:18:51.951Z,100
2023-03-21T13:19:51.830Z,100
2023-03-21T13:20:51.828Z,100
2023-03-21T13:21:51.842Z,100
2023-03-21T13:22:51.840Z,100
2023-03-21T13:23:51.820Z,100
2023-03-21T13:24:51.862Z,100
2023-03-21T13:25:51.836Z,100
2023-03-21T13:26:51.827Z,100
2023-03-21T13:27:51.844Z,100
2023-03-21T13:28:51.837Z,100
2023-03-21T13:29:51.955Z,100
2023-03-21T13:30:51.877Z,100
2023-03-21T13:31:53.392Z,100
2023-03-21T13:32:51.829Z,100
2023-03-21T13:33:51.826Z,100
2023-03-21T13:34:51.853Z,100
2023-03-21T13:35:51.861Z,100
2023-03-21T13:36:51.840Z,100
2023-03-21T13:37:51.891Z,100
2023-03-21T13:38:51.844Z,100